Time;durP1;ratioP1;P1;durP2;ratioP2;P2;SDS_P1;SDS_P2;PMS_P1;PMS_P2;Temp;Humidity;BMP_temperature;BMP_pressure;BME280_temperature;BME280_humidity;BME280_pressure;Samples;Min_cycle;Max_cycle;Signal;HPM_P1;HPM_P2
2021/08/06 05:43:29;;;;;;;3.97;2.88;;;17.10;99.90;;;;;;5040634;28;21021;-47
2021/08/06 05:49:02;;;;;;;2.20;2.00;;;17.50;99.90;;;;;;5026437;27;20593;-49
2021/08/06 05:51:28;;;;;;;2.77;2.57;;;17.30;99.90;;;;;;5043234;28;20221;-47
2021/08/06 05:53:53;;;;;;;2.50;2.30;;;17.30;99.90;;;;;;5013848;28;20627;-49
2021/08/06 05:56:19;;;;;;;2.90;2.40;;;17.30;99.90;;;;;;5015794;28;20318;-47
2021/08/06 05:58:44;;;;;;;3.57;3.27;;;17.50;99.90;;;;;;5007877;28;20269;-48
2021/08/06 06:01:10;;;;;;;3.23;2.43;;;17.30;99.90;;;;;;5018426;28;20217;-47
2021/08/06 06:03:36;;;;;;;2.50;2.30;;;17.40;99.90;;;;;;5022648;28;20187;-48
2021/08/06 06:06:02;;;;;;;2.43;2.33;;;17.50;99.90;;;;;;5016930;28;20293;-48
2021/08/06 06:08:28;;;;;;;2.40;2.20;;;17.50;99.90;;;;;;5015308;28;20285;-48
2021/08/06 06:10:53;;;;;;;2.30;2.20;;;17.50;99.90;;;;;;5007113;28;20617;-48
2021/08/06 06:13:20;;;;;;;2.80;2.37;;;17.60;99.90;;;;;;5007495;28;20596;-48
2021/08/06 06:15:45;;;;;;;3.90;2.25;;;18.00;99.90;;;;;;5008022;28;20202;-48
2021/08/06 06:18:11;;;;;;;3.80;2.80;;;17.70;99.90;;;;;;5006043;28;20253;-47
2021/08/06 06:20:37;;;;;;;4.47;3.20;;;17.80;99.90;;;;;;5015936;28;20205;-48
2021/08/06 06:23:03;;;;;;;3.30;2.77;;;17.80;99.90;;;;;;5020827;28;20198;-49
2021/08/06 06:25:29;;;;;;;3.05;2.55;;;17.80;99.90;;;;;;5009148;28;20214;-49
2021/08/06 06:27:58;;;;;;;2.53;2.20;;;17.90;99.90;;;;;;5017176;28;20221;-50
2021/08/06 06:30:26;;;;;;;2.70;2.50;;;18.00;99.90;;;;;;5016097;28;20491;-50
2021/08/06 06:32:53;;;;;;;2.22;2.05;;;18.10;99.90;;;;;;5013870;28;20539;-49
2021/08/06 06:35:19;;;;;;;3.30;2.50;;;18.30;99.90;;;;;;5019567;28;20202;-49
2021/08/06 06:37:45;;;;;;;3.28;1.98;;;18.30;99.90;;;;;;5022640;28;20180;-49
2021/08/06 06:40:12;;;;;;;4.23;2.30;;;18.50;99.90;;;;;;5011225;28;20219;-50
2021/08/06 06:42:37;;;;;;;4.35;2.80;;;18.50;99.90;;;;;;5007120;28;20428;-49
2021/08/06 06:45:04;;;;;;;2.47;2.27;;;18.70;99.90;;;;;;5024667;28;20178;-49
2021/08/06 06:47:37;;;;;;;2.55;2.33;;;18.80;99.90;;;;;;5011394;28;20237;-49
2021/08/06 06:50:05;;;;;;;3.78;3.20;;;18.80;99.90;;;;;;5014022;28;20555;-51
2021/08/06 06:52:31;;;;;;;3.20;2.88;;;18.70;99.90;;;;;;5007896;28;20196;-49
2021/08/06 06:54:56;;;;;;;2.43;2.17;;;18.70;99.90;;;;;;5012447;28;20183;-49
2021/08/06 06:57:22;;;;;;;2.80;2.10;;;18.80;99.90;;;;;;5006317;28;20278;-49
2021/08/06 06:59:48;;;;;;;2.30;2.10;;;18.80;99.90;;;;;;4998718;28;20597;-49
2021/08/06 07:02:13;;;;;;;2.13;1.90;;;18.90;99.90;;;;;;4996909;28;20272;-49
2021/08/06 07:04:39;;;;;;;2.33;2.13;;;19.20;99.90;;;;;;4999955;28;20187;-50
2021/08/06 07:07:05;;;;;;;2.50;1.90;;;19.40;99.90;;;;;;5003895;28;20667;-50
2021/08/06 07:09:30;;;;;;;3.50;2.20;;;20.10;99.90;;;;;;5011452;28;20179;-49
2021/08/06 07:11:56;;;;;;;2.10;2.00;;;20.40;99.90;;;;;;4998567;28;20183;-50
2021/08/06 07:14:22;;;;;;;1.80;1.70;;;20.80;99.90;;;;;;4993045;28;20208;-50
2021/08/06 07:16:47;;;;;;;2.90;1.67;;;21.00;99.90;;;;;;4991779;28;20912;-52
2021/08/06 07:19:13;;;;;;;1.80;1.70;;;21.10;99.90;;;;;;5010158;28;20183;-51
2021/08/06 07:21:43;;;;;;;2.00;1.80;;;21.00;99.90;;;;;;4998402;28;20184;-52
2021/08/06 07:24:09;;;;;;;2.03;1.88;;;21.00;99.90;;;;;;4992507;28;20175;-52
2021/08/06 07:26:35;;;;;;;2.30;1.67;;;21.00;99.90;;;;;;5005547;28;20199;-52
2021/08/06 07:29:00;;;;;;;1.50;1.40;;;20.90;99.90;;;;;;4992043;28;20217;-50
2021/08/06 07:31:26;;;;;;;2.73;1.63;;;20.90;99.90;;;;;;5004543;28;20647;-51
2021/08/06 07:33:52;;;;;;;1.67;1.57;;;20.80;99.90;;;;;;5008198;28;20183;-49
2021/08/06 07:36:18;;;;;;;2.47;1.90;;;20.80;99.90;;;;;;5003298;28;20202;-50
2021/08/06 07:38:43;;;;;;;3.30;2.10;;;20.90;99.90;;;;;;5005339;28;20187;-50
2021/08/06 07:41:09;;;;;;;1.60;1.50;;;20.90;99.90;;;;;;4994025;28;20199;-49
2021/08/06 07:43:35;;;;;;;2.10;1.87;;;20.90;99.90;;;;;;5005194;28;20186;-49
2021/08/06 07:46:00;;;;;;;2.30;1.90;;;20.90;99.90;;;;;;5000668;28;20679;-51
2021/08/06 07:48:26;;;;;;;1.93;1.80;;;20.80;99.90;;;;;;4995786;28;20212;-49
2021/08/06 07:50:52;;;;;;;5.17;1.70;;;20.70;99.90;;;;;;5001308;28;20183;-50
2021/08/06 07:53:18;;;;;;;1.93;1.83;;;20.40;99.90;;;;;;4996983;28;20267;-52
2021/08/06 07:55:43;;;;;;;1.90;1.70;;;20.80;99.90;;;;;;4992960;28;20253;-49
2021/08/06 07:58:09;;;;;;;5.00;2.70;;;20.70;99.90;;;;;;4991831;28;20183;-50
2021/08/06 08:00:35;;;;;;;2.30;2.10;;;20.50;99.90;;;;;;4992846;28;20194;-50
2021/08/06 08:03:00;;;;;;;2.20;1.77;;;20.30;99.90;;;;;;5003895;28;20237;-49
2021/08/06 08:05:26;;;;;;;2.03;1.60;;;19.90;99.90;;;;;;4991969;28;20281;-48
2021/08/06 08:07:52;;;;;;;3.50;1.67;;;19.60;99.90;;;;;;4993727;28;20227;-49
2021/08/06 08:10:19;;;;;;;1.33;1.23;;;19.50;99.90;;;;;;4991727;28;20652;-50
2021/08/06 08:12:46;;;;;;;2.70;1.02;;;19.20;99.90;;;;;;4991984;28;20199;-49
2021/08/06 08:15:11;;;;;;;1.50;1.10;;;19.40;99.90;;;;;;4999819;28;20211;-48
2021/08/06 08:17:37;;;;;;;1.20;1.10;;;18.70;99.90;;;;;;4999687;28;20596;-49
2021/08/06 08:20:04;;;;;;;1.20;1.10;;;18.50;99.90;;;;;;4994092;28;20188;-51
2021/08/06 08:22:30;;;;;;;1.40;1.30;;;18.50;99.90;;;;;;4996876;28;20215;-50
2021/08/06 08:24:56;;;;;;;2.17;1.60;;;18.40;99.90;;;;;;4995391;28;20888;-50
2021/08/06 08:27:22;;;;;;;3.47;1.40;;;18.40;99.90;;;;;;5001202;28;20192;-49
2021/08/06 08:29:47;;;;;;;4.53;1.40;;;18.50;99.90;;;;;;4998409;28;20194;-49
2021/08/06 08:32:16;;;;;;;1.90;1.20;;;18.70;99.90;;;;;;4994371;28;20184;-50
2021/08/06 08:34:42;;;;;;;1.10;1.00;;;19.00;99.90;;;;;;5002789;28;20223;-50
2021/08/06 08:37:08;;;;;;;1.67;1.30;;;19.40;99.90;;;;;;4993068;28;20660;-48
2021/08/06 08:39:35;;;;;;;2.03;1.50;;;19.60;99.90;;;;;;4997648;28;20383;-49
2021/08/06 08:42:03;;;;;;;1.20;1.10;;;19.90;99.90;;;;;;5002613;28;20187;-49
2021/08/06 08:44:34;;;;;;;0.90;0.90;;;20.10;99.90;;;;;;4995995;28;20274;-50
2021/08/06 08:47:02;;;;;;;1.00;0.90;;;20.40;99.90;;;;;;4994149;28;20220;-51
2021/08/06 08:49:31;;;;;;;1.08;0.88;;;20.90;99.90;;;;;;4998316;28;20382;-50
2021/08/06 08:51:57;;;;;;;1.30;0.90;;;21.40;99.90;;;;;;4991189;28;20267;-50
2021/08/06 08:54:23;;;;;;;1.23;1.13;;;21.70;99.90;;;;;;4990509;28;20183;-50
2021/08/06 08:56:49;;;;;;;1.77;1.13;;;22.10;99.90;;;;;;4990686;28;20271;-50
2021/08/06 08:59:15;;;;;;;1.20;1.00;;;21.90;99.90;;;;;;5000944;28;20920;-51
2021/08/06 09:01:41;;;;;;;2.80;1.23;;;22.10;99.90;;;;;;4990891;28;20188;-51
2021/08/06 09:04:21;;;;;;;1.53;0.90;;;22.40;99.90;;;;;;4990370;28;20190;-51
2021/08/06 09:06:48;;;;;;;1.70;1.10;;;23.20;99.90;;;;;;5003661;28;20456;-50
2021/08/06 09:09:21;;;;;;;1.67;0.80;;;24.00;99.90;;;;;;4999277;28;20439;-50
2021/08/06 09:12:01;;;;;;;1.40;0.93;;;24.40;99.90;;;;;;5007715;28;20543;-51
2021/08/06 09:14:29;;;;;;;2.30;0.90;;;25.30;99.80;;;;;;4991475;28;20438;-48
2021/08/06 09:17:10;;;;;;;1.87;1.37;;;26.00;97.30;;;;;;5001864;28;20457;-50
2021/08/06 09:19:55;;;;;;;1.50;1.40;;;26.20;95.70;;;;;;4998494;28;20437;-52
2021/08/06 09:22:24;;;;;;;1.67;1.03;;;26.20;95.00;;;;;;4990443;28;20453;-51
2021/08/06 09:25:08;;;;;;;2.13;1.20;;;26.50;93.80;;;;;;4990166;28;20445;-49
2021/08/06 09:27:37;;;;;;;1.00;0.83;;;26.10;94.00;;;;;;4997010;28;20462;-50
2021/08/06 09:30:07;;;;;;;1.73;1.17;;;25.40;95.10;;;;;;4994852;28;20965;-52
2021/08/06 09:32:47;;;;;;;1.17;1.07;;;25.20;96.10;;;;;;5002205;28;20951;-53
2021/08/06 09:35:18;;;;;;;3.40;1.17;;;24.80;97.20;;;;;;4993196;28;20468;-51
2021/08/06 09:37:44;;;;;;;2.93;1.13;;;25.70;96.00;;;;;;4996950;28;20480;-50
2021/08/06 09:40:39;;;;;;;1.30;0.80;;;27.50;91.70;;;;;;5000318;28;20442;-50
2021/08/06 09:43:13;;;;;;;2.77;1.53;;;28.90;87.80;;;;;;4989778;28;20492;-52
2021/08/06 09:45:41;;;;;;;2.50;1.13;;;28.60;87.10;;;;;;4990090;28;20531;-51
2021/08/06 09:48:11;;;;;;;1.40;1.20;;;27.80;85.50;;;;;;4989863;28;20994;-50
2021/08/06 09:50:46;;;;;;;1.80;1.20;;;26.80;90.30;;;;;;4993536;28;20587;-51
2021/08/06 09:53:13;;;;;;;1.20;1.10;;;26.00;90.70;;;;;;4989831;28;20771;-51
2021/08/06 09:55:48;;;;;;;1.30;1.10;;;25.30;91.90;;;;;;5006945;28;20826;-50
2021/08/06 09:58:20;;;;;;;1.70;1.40;;;24.80;92.60;;;;;;4996187;28;20447;-50
2021/08/06 10:00:49;;;;;;;1.13;1.03;;;25.30;93.20;;;;;;4998545;28;20454;-49
2021/08/06 10:03:35;;;;;;;2.50;1.73;;;27.30;90.30;;;;;;4992914;28;20468;-49
2021/08/06 10:06:15;;;;;;;1.60;1.20;;;28.80;81.80;;;;;;4989132;28;20480;-50
2021/08/06 10:08:42;;;;;;;1.20;1.10;;;29.90;76.70;;;;;;4991394;28;20570;-51
2021/08/06 10:11:09;;;;;;;1.00;0.90;;;30.70;71.60;;;;;;5001032;28;20999;-50
2021/08/06 10:13:35;;;;;;;1.67;1.10;;;30.40;70.60;;;;;;4989225;28;20605;-50
2021/08/06 10:16:01;;;;;;;3.30;1.13;;;30.10;70.10;;;;;;4991398;28;20468;-50
2021/08/06 10:18:27;;;;;;;3.57;1.37;;;29.20;72.70;;;;;;5002809;28;20812;-51
2021/08/06 10:20:53;;;;;;;1.30;1.20;;;28.40;73.20;;;;;;4992941;28;20555;-50
2021/08/06 10:23:19;;;;;;;1.40;1.30;;;27.50;76.30;;;;;;4997533;28;20227;-50
2021/08/06 10:25:45;;;;;;;2.57;1.60;;;26.40;80.50;;;;;;4994533;28;20552;-49
2021/08/06 10:28:11;;;;;;;1.30;1.13;;;25.90;83.00;;;;;;4993429;28;20682;-52
2021/08/06 10:30:38;;;;;;;1.53;1.20;;;25.60;84.00;;;;;;4992843;28;20527;-49
2021/08/06 10:33:28;;;;;;;2.40;1.73;;;25.30;84.20;;;;;;4997390;28;20227;-49
2021/08/06 10:35:56;;;;;;;1.30;1.20;;;24.80;86.80;;;;;;4994070;28;20467;-52
2021/08/06 10:38:46;;;;;;;1.20;1.10;;;24.70;88.90;;;;;;4995328;28;20441;-50
2021/08/06 10:41:17;;;;;;;1.20;1.03;;;24.50;89.10;;;;;;4999080;28;20541;-49
2021/08/06 10:44:03;;;;;;;1.70;1.20;;;24.40;88.80;;;;;;4992751;28;20489;-49
2021/08/06 10:46:50;;;;;;;2.13;1.23;;;24.50;88.00;;;;;;4992725;28;20462;-51
2021/08/06 10:49:16;;;;;;;1.60;1.20;;;24.40;90.00;;;;;;4995868;28;20438;-49
2021/08/06 10:51:41;;;;;;;1.50;1.40;;;24.30;90.20;;;;;;4992882;28;20434;-50
2021/08/06 10:54:07;;;;;;;1.30;1.20;;;24.40;89.80;;;;;;4993096;28;20184;-48
2021/08/06 10:56:36;;;;;;;1.30;1.20;;;24.50;89.30;;;;;;4993203;28;20476;-50
2021/08/06 10:59:14;;;;;;;1.70;1.23;;;24.20;88.80;;;;;;4993807;28;20226;-48
2021/08/06 11:01:45;;;;;;;3.77;1.53;;;24.30;89.70;;;;;;4993263;28;20801;-49
2021/08/06 11:04:11;;;;;;;1.60;1.30;;;24.30;90.20;;;;;;4992207;28;20466;-48
2021/08/06 11:06:46;;;;;;;1.53;1.30;;;24.30;90.90;;;;;;4992734;28;21033;-50
2021/08/06 11:09:25;;;;;;;2.67;1.80;;;24.10;90.20;;;;;;4998317;28;20201;-50
2021/08/06 11:12:04;;;;;;;1.30;1.20;;;23.60;90.80;;;;;;4992948;28;20544;-49
2021/08/06 11:14:32;;;;;;;2.43;1.37;;;23.30;91.30;;;;;;4993113;28;20423;-49
2021/08/06 11:17:16;;;;;;;1.27;1.10;;;23.10;91.10;;;;;;4992983;28;20465;-49
2021/08/06 11:19:44;;;;;;;2.40;1.90;;;22.90;91.40;;;;;;4993176;28;20970;-49
2021/08/06 11:22:33;;;;;;;2.30;1.20;;;22.90;91.70;;;;;;4995951;28;20489;-51
2021/08/06 11:25:05;;;;;;;1.30;1.20;;;23.00;92.30;;;;;;4993586;28;20435;-48
2021/08/06 11:27:33;;;;;;;1.57;1.10;;;23.50;91.50;;;;;;5003392;28;20465;-50
2021/08/06 11:30:20;;;;;;;2.53;1.27;;;24.30;90.90;;;;;;4999397;28;20806;-49
2021/08/06 11:32:48;;;;;;;1.73;1.63;;;24.80;89.70;;;;;;4993103;28;20445;-50
2021/08/06 11:35:16;;;;;;;1.63;1.53;;;24.90;87.20;;;;;;4992368;28;20464;-48
2021/08/06 11:37:52;;;;;;;1.80;1.37;;;25.00;88.50;;;;;;4996192;28;20479;-48
2021/08/06 11:40:20;;;;;;;1.40;1.17;;;25.50;85.80;;;;;;4996350;28;20441;-51
2021/08/06 11:42:46;;;;;;;1.20;1.10;;;25.40;86.20;;;;;;4992900;28;20905;-50
2021/08/06 11:45:15;;;;;;;1.97;1.20;;;25.00;84.90;;;;;;4991676;28;20505;-49
2021/08/06 11:47:50;;;;;;;0.80;0.80;;;24.50;85.50;;;;;;5001296;28;20474;-49
2021/08/06 11:50:19;;;;;;;2.80;1.63;;;24.40;86.20;;;;;;4993945;28;20572;-49
2021/08/06 11:52:50;;;;;;;1.57;1.10;;;24.30;87.30;;;;;;4996586;28;20518;-49
2021/08/06 11:55:20;;;;;;;2.30;1.27;;;24.10;88.50;;;;;;4991762;28;20458;-49
2021/08/06 11:57:49;;;;;;;2.70;1.10;;;23.80;87.90;;;;;;4995882;28;20438;-49
2021/08/06 12:00:17;;;;;;;1.47;1.20;;;23.40;90.00;;;;;;4991722;28;20500;-48
2021/08/06 12:02:43;;;;;;;1.47;1.20;;;23.30;90.10;;;;;;4991066;28;20930;-48
2021/08/06 12:05:22;;;;;;;1.23;1.13;;;23.20;90.00;;;;;;4991588;28;20441;-48
2021/08/06 12:07:48;;;;;;;1.50;1.20;;;23.10;90.40;;;;;;4991249;28;20234;-49
2021/08/06 12:10:14;;;;;;;1.03;0.93;;;23.00;89.90;;;;;;4992053;28;20438;-49
2021/08/06 12:12:40;;;;;;;1.20;1.10;;;23.10;89.40;;;;;;5003082;28;20237;-49
2021/08/06 12:15:26;;;;;;;3.37;1.23;;;23.00;90.00;;;;;;4998808;28;20254;-49
2021/08/06 12:18:21;;;;;;;2.33;1.40;;;23.00;90.00;;;;;;4994165;28;20260;-48
2021/08/06 12:20:55;;;;;;;1.37;1.10;;;23.30;89.70;;;;;;5006072;28;20892;-49
2021/08/06 12:23:22;;;;;;;1.20;1.10;;;23.40;87.40;;;;;;4996023;28;20966;-50
2021/08/06 12:26:05;;;;;;;1.60;1.20;;;23.50;87.20;;;;;;5000589;28;20442;-50
2021/08/06 12:28:32;;;;;;;2.50;1.23;;;23.60;88.30;;;;;;4989647;28;20466;-50
2021/08/06 12:31:14;;;;;;;2.20;1.40;;;23.60;87.30;;;;;;4996155;28;20849;-50
2021/08/06 12:33:41;;;;;;;2.00;1.00;;;23.60;87.90;;;;;;4991756;28;20524;-49
2021/08/06 12:36:18;;;;;;;1.30;1.20;;;23.70;87.20;;;;;;4996782;28;20466;-50
2021/08/06 12:38:46;;;;;;;1.27;1.00;;;23.80;87.60;;;;;;4993605;28;20447;-49
2021/08/06 12:41:25;;;;;;;1.93;1.00;;;23.90;86.10;;;;;;4990863;28;20556;-51
2021/08/06 12:44:17;;;;;;;0.90;0.90;;;24.00;86.00;;;;;;4995612;28;20442;-51
2021/08/06 12:47:07;;;;;;;1.57;1.00;;;24.10;85.10;;;;;;4992141;28;20466;-49
2021/08/06 12:49:37;;;;;;;2.20;1.53;;;24.30;85.10;;;;;;4990734;28;20750;-49
2021/08/06 12:52:10;;;;;;;1.43;1.33;;;24.50;84.40;;;;;;4989426;28;20435;-48
2021/08/06 12:55:00;;;;;;;1.27;1.17;;;24.60;83.40;;;;;;4990593;28;20438;-49
2021/08/06 12:57:44;;;;;;;1.63;1.17;;;24.50;83.80;;;;;;4989382;28;20472;-50
2021/08/06 13:00:26;;;;;;;1.47;1.17;;;24.50;86.00;;;;;;4991341;28;20430;-51
2021/08/06 13:03:12;;;;;;;2.20;1.67;;;24.40;85.00;;;;;;4990325;28;20442;-52
2021/08/06 13:06:00;;;;;;;1.93;1.20;;;24.30;85.80;;;;;;4997577;28;20549;-50
2021/08/06 13:08:27;;;;;;;5.87;1.63;;;24.30;83.10;;;;;;4990167;28;20474;-51
2021/08/06 13:11:03;;;;;;;2.10;1.33;;;24.00;83.40;;;;;;4996640;28;20449;-50
2021/08/06 13:13:30;;;;;;;1.77;1.50;;;24.10;83.50;;;;;;4995248;28;20438;-49
2021/08/06 13:15:56;;;;;;;1.30;1.10;;;24.20;83.10;;;;;;4991989;28;20454;-49
2021/08/06 13:18:22;;;;;;;1.97;1.00;;;24.40;82.50;;;;;;4997804;28;20525;-50
2021/08/06 13:20:47;;;;;;;6.23;1.37;;;24.40;82.30;;;;;;4992554;28;20699;-50
2021/08/06 13:23:13;;;;;;;1.20;1.10;;;24.50;82.60;;;;;;4995788;28;20434;-51
2021/08/06 13:25:41;;;;;;;1.63;1.00;;;24.50;82.20;;;;;;5001921;28;20204;-50
2021/08/06 13:28:08;;;;;;;1.43;1.20;;;24.50;82.90;;;;;;4991044;28;20265;-51
2021/08/06 13:30:34;;;;;;;1.67;1.40;;;24.40;83.30;;;;;;4993720;28;20434;-49
2021/08/06 13:32:59;;;;;;;1.30;0.90;;;24.50;81.60;;;;;;4997136;28;20469;-52
2021/08/06 13:35:26;;;;;;;1.30;1.10;;;24.60;81.00;;;;;;4991162;28;20458;-51
2021/08/06 13:37:52;;;;;;;4.73;1.20;;;24.80;80.70;;;;;;4990646;28;20443;-50
2021/08/06 13:40:19;;;;;;;1.30;1.00;;;24.90;80.00;;;;;;4992246;28;20474;-50
2021/08/06 13:42:45;;;;;;;1.40;1.20;;;24.90;79.10;;;;;;4994339;28;20694;-51
2021/08/06 13:45:13;;;;;;;1.47;0.97;;;25.10;78.90;;;;;;4991441;28;20912;-51
2021/08/06 13:47:39;;;;;;;3.23;1.00;;;25.20;77.70;;;;;;4994330;28;20471;-51
2021/08/06 13:50:05;;;;;;;1.47;1.37;;;25.40;76.90;;;;;;4999488;28;20458;-50
2021/08/06 13:52:31;;;;;;;2.00;1.10;;;25.30;78.20;;;;;;4998647;28;20429;-49
2021/08/06 13:54:57;;;;;;;1.70;1.30;;;25.40;78.20;;;;;;4995413;28;20433;-51
2021/08/06 13:57:22;;;;;;;1.30;1.13;;;25.40;77.60;;;;;;4994449;28;20184;-51
2021/08/06 13:59:48;;;;;;;3.17;1.50;;;25.20;78.60;;;;;;4990690;28;20556;-50
2021/08/06 14:02:14;;;;;;;1.30;1.20;;;25.10;78.60;;;;;;4989543;28;20620;-50
2021/08/06 14:04:40;;;;;;;3.43;1.50;;;25.00;78.00;;;;;;4989782;28;20244;-52
2021/08/06 14:07:08;;;;;;;2.73;2.33;;;24.80;79.20;;;;;;4990753;28;20212;-49
2021/08/06 14:09:35;;;;;;;1.90;1.70;;;24.80;79.70;;;;;;4993923;28;20191;-49
2021/08/06 14:12:01;;;;;;;1.63;1.40;;;25.00;80.20;;;;;;4993768;28;20431;-50
2021/08/06 14:14:27;;;;;;;2.43;1.20;;;25.00;78.70;;;;;;5002877;28;20498;-52
2021/08/06 14:16:53;;;;;;;1.37;1.10;;;25.00;78.80;;;;;;4996899;28;20620;-52
2021/08/06 14:19:19;;;;;;;1.10;1.00;;;24.90;80.00;;;;;;4995914;28;20710;-52
2021/08/06 14:21:46;;;;;;;1.50;1.40;;;25.00;79.80;;;;;;4998893;28;20790;-53
2021/08/06 14:24:12;;;;;;;1.93;1.50;;;25.10;79.50;;;;;;5002710;28;20435;-53
2021/08/06 14:26:38;;;;;;;1.00;0.90;;;25.00;79.90;;;;;;5002609;28;20459;-53
2021/08/06 14:29:03;;;;;;;1.70;1.07;;;24.90;79.10;;;;;;4993255;28;20481;-53
2021/08/06 14:31:29;;;;;;;2.10;1.30;;;24.90;79.50;;;;;;5000651;28;20645;-52
2021/08/06 14:33:55;;;;;;;1.50;1.30;;;25.00;79.00;;;;;;4993481;28;20188;-53
2021/08/06 14:36:21;;;;;;;1.10;1.00;;;25.00;78.50;;;;;;4993481;28;20203;-53
2021/08/06 14:38:47;;;;;;;1.00;0.90;;;25.00;77.10;;;;;;4992868;28;20254;-51
2021/08/06 14:41:12;;;;;;;3.00;1.43;;;24.80;78.30;;;;;;4993313;28;20195;-52
2021/08/06 14:43:38;;;;;;;1.10;1.00;;;24.80;78.50;;;;;;4993324;28;20435;-52
2021/08/06 14:46:04;;;;;;;1.47;1.30;;;24.60;78.10;;;;;;4996900;28;20207;-53
2021/08/06 14:48:31;;;;;;;1.60;1.03;;;24.70;79.10;;;;;;5007416;28;20280;-52
2021/08/06 14:50:57;;;;;;;1.90;1.00;;;24.70;78.10;;;;;;5012132;28;20260;-53
2021/08/06 14:53:24;;;;;;;1.60;1.03;;;24.70;78.10;;;;;;5008084;28;20533;-53
2021/08/06 14:55:50;;;;;;;1.57;1.00;;;24.60;77.70;;;;;;5012465;28;20446;-53
2021/08/06 14:58:16;;;;;;;1.80;1.17;;;24.60;77.20;;;;;;5012674;28;20980;-52
2021/08/06 15:00:42;;;;;;;2.27;1.30;;;24.60;76.10;;;;;;5008833;28;20468;-52
2021/08/06 15:03:08;;;;;;;1.97;1.10;;;24.50;76.30;;;;;;4992482;28;20458;-51
2021/08/06 15:05:33;;;;;;;3.30;1.00;;;24.50;76.20;;;;;;4992255;28;20998;-52
2021/08/06 15:08:00;;;;;;;1.30;0.87;;;24.50;75.80;;;;;;4993118;28;20540;-52
2021/08/06 15:10:27;;;;;;;0.87;0.87;;;24.50;75.60;;;;;;4992747;28;20295;-53
2021/08/06 15:12:53;;;;;;;1.17;1.07;;;24.60;75.70;;;;;;4994046;28;20527;-52
2021/08/06 15:15:19;;;;;;;1.20;0.97;;;24.60;76.20;;;;;;5012089;28;20523;-52
2021/08/06 15:17:45;;;;;;;2.10;2.00;;;24.60;76.00;;;;;;5010158;28;20445;-53
2021/08/06 15:20:11;;;;;;;1.00;0.90;;;24.60;76.20;;;;;;5010105;28;20655;-52
2021/08/06 15:22:38;;;;;;;2.63;1.30;;;24.50;76.50;;;;;;4992178;28;20203;-51
2021/08/06 15:25:05;;;;;;;1.30;0.90;;;24.30;78.40;;;;;;4993605;28;20461;-52
2021/08/06 15:27:31;;;;;;;3.27;1.40;;;24.40;78.20;;;;;;4992124;28;20624;-53
2021/08/06 15:29:57;;;;;;;1.17;1.07;;;24.30;77.30;;;;;;4992301;28;20512;-52
2021/08/06 15:32:22;;;;;;;1.10;1.00;;;24.30;78.20;;;;;;4996157;28;20227;-51
2021/08/06 15:34:48;;;;;;;4.50;1.60;;;24.30;78.70;;;;;;5000530;28;20184;-53
2021/08/06 15:37:14;;;;;;;2.40;1.47;;;24.20;78.90;;;;;;4991984;28;20215;-52
2021/08/06 15:39:40;;;;;;;0.97;0.90;;;24.20;79.90;;;;;;4995568;28;20190;-52
2021/08/06 15:42:07;;;;;;;1.43;1.30;;;24.20;79.90;;;;;;4994984;28;20286;-52
2021/08/06 15:44:33;;;;;;;3.30;1.40;;;24.20;80.50;;;;;;4991832;28;20434;-51
2021/08/06 15:47:00;;;;;;;2.80;1.50;;;24.20;81.40;;;;;;4991531;28;20470;-53
2021/08/06 15:49:26;;;;;;;1.50;1.40;;;24.10;81.80;;;;;;4991732;28;20435;-53
2021/08/06 15:51:51;;;;;;;5.13;1.80;;;24.10;82.20;;;;;;4991984;28;20462;-53
2021/08/06 15:54:17;;;;;;;2.67;1.40;;;23.90;82.40;;;;;;4991299;28;20184;-53
2021/08/06 15:56:43;;;;;;;1.77;1.60;;;23.80;82.70;;;;;;4994767;28;20742;-51
2021/08/06 15:59:09;;;;;;;1.57;1.27;;;23.80;83.30;;;;;;4991374;28;20192;-51
2021/08/06 16:01:35;;;;;;;2.60;1.63;;;23.80;81.30;;;;;;5006929;28;20543;-51
2021/08/06 16:04:02;;;;;;;1.57;1.20;;;23.90;82.60;;;;;;4994326;28;20454;-51
2021/08/06 16:06:28;;;;;;;2.17;1.40;;;23.90;82.40;;;;;;4991367;28;20213;-50
2021/08/06 16:08:54;;;;;;;2.00;1.37;;;23.90;82.90;;;;;;4992047;28;20463;-51
2021/08/06 16:11:20;;;;;;;1.57;1.47;;;24.00;82.60;;;;;;4991071;28;20721;-51
2021/08/06 16:13:45;;;;;;;2.47;1.27;;;24.00;81.80;;;;;;4991020;28;20203;-51
2021/08/06 16:16:11;;;;;;;1.53;1.20;;;24.10;82.80;;;;;;4991498;28;20199;-51
2021/08/06 16:18:37;;;;;;;2.53;1.40;;;23.80;82.80;;;;;;4997412;28;20608;-50
2021/08/06 16:21:03;;;;;;;2.00;1.30;;;23.70;82.70;;;;;;4997721;28;20191;-51
2021/08/06 16:23:29;;;;;;;2.47;1.60;;;23.70;83.50;;;;;;4997314;28;20446;-51
2021/08/06 16:25:55;;;;;;;2.00;1.90;;;23.80;83.60;;;;;;4993735;28;20246;-52
2021/08/06 16:28:21;;;;;;;1.90;1.47;;;23.90;83.60;;;;;;4991538;28;20474;-52
2021/08/06 16:30:46;;;;;;;2.20;1.60;;;24.00;84.10;;;;;;4997790;28;20533;-51
2021/08/06 16:33:16;;;;;;;1.70;1.20;;;23.90;84.20;;;;;;4994676;28;20447;-52
2021/08/06 16:35:42;;;;;;;3.10;1.50;;;23.80;84.00;;;;;;4999449;28;20630;-53
2021/08/06 16:38:07;;;;;;;1.30;1.20;;;23.80;84.80;;;;;;4991184;28;20473;-52
2021/08/06 16:40:33;;;;;;;2.60;1.80;;;23.80;83.60;;;;;;4990964;28;20442;-52
2021/08/06 16:42:59;;;;;;;1.47;1.37;;;23.70;84.30;;;;;;5001551;28;20274;-52
2021/08/06 16:45:25;;;;;;;1.93;1.50;;;23.50;84.70;;;;;;4991029;28;20571;-52
2021/08/06 16:47:51;;;;;;;2.97;1.43;;;23.50;85.40;;;;;;4990494;28;20211;-53
2021/08/06 16:50:17;;;;;;;1.60;1.50;;;23.50;85.90;;;;;;4991909;28;20207;-53
2021/08/06 16:52:43;;;;;;;1.83;1.73;;;23.40;85.70;;;;;;4990832;28;20645;-52
2021/08/06 16:55:10;;;;;;;4.90;1.83;;;23.40;86.20;;;;;;4999536;28;20441;-53
2021/08/06 16:57:36;;;;;;;1.50;1.13;;;23.50;86.20;;;;;;4996802;28;20187;-52
2021/08/06 17:00:08;;;;;;;2.20;1.50;;;23.40;86.60;;;;;;4990844;28;20439;-53
2021/08/06 17:02:34;;;;;;;2.23;1.13;;;23.40;87.20;;;;;;4990106;28;20955;-52
2021/08/06 17:05:03;;;;;;;1.80;1.40;;;23.30;87.00;;;;;;4990321;28;20931;-53
2021/08/06 17:07:29;;;;;;;1.40;1.30;;;23.30;86.90;;;;;;4991720;28;20486;-52
2021/08/06 17:09:55;;;;;;;1.43;1.20;;;23.30;86.60;;;;;;4999577;28;20934;-52
2021/08/06 17:12:20;;;;;;;1.73;1.57;;;23.30;86.80;;;;;;4990750;28;20469;-52
2021/08/06 17:14:46;;;;;;;2.40;1.30;;;23.20;88.10;;;;;;4998064;28;20229;-53
2021/08/06 17:17:12;;;;;;;1.60;1.50;;;23.20;87.70;;;;;;4996113;28;20656;-53
2021/08/06 17:19:37;;;;;;;2.57;1.60;;;23.20;88.70;;;;;;4991687;28;20211;-52
2021/08/06 17:22:04;;;;;;;1.30;1.03;;;23.10;87.20;;;;;;4997320;28;20180;-52
2021/08/06 17:24:29;;;;;;;1.90;1.10;;;23.00;84.40;;;;;;4989958;28;20234;-52
2021/08/06 17:26:55;;;;;;;1.40;1.30;;;22.90;85.00;;;;;;4999905;28;20520;-51
2021/08/06 17:29:21;;;;;;;2.07;1.87;;;22.90;85.70;;;;;;4991607;28;20474;-52
2021/08/06 17:31:47;;;;;;;1.50;1.40;;;22.80;88.80;;;;;;4996819;28;20466;-52
2021/08/06 17:34:13;;;;;;;2.27;1.40;;;22.80;86.00;;;;;;5001191;28;20435;-53
2021/08/06 17:36:38;;;;;;;1.20;1.00;;;22.90;86.00;;;;;;4990569;28;20781;-51
2021/08/06 17:39:04;;;;;;;5.97;5.40;;;23.10;85.70;;;;;;4989779;28;20210;-52
2021/08/06 17:41:30;;;;;;;1.53;1.37;;;22.90;85.30;;;;;;4990664;28;20290;-51
2021/08/06 17:43:56;;;;;;;1.37;1.27;;;22.90;86.80;;;;;;4989344;28;20523;-52
2021/08/06 17:46:23;;;;;;;2.60;1.60;;;22.90;86.70;;;;;;4990202;28;20564;-51
2021/08/06 17:48:49;;;;;;;6.03;4.95;;;22.80;87.60;;;;;;4992002;28;20254;-51
2021/08/06 17:51:14;;;;;;;1.87;1.57;;;22.70;88.60;;;;;;5002271;28;20569;-52
2021/08/06 17:53:40;;;;;;;2.70;1.50;;;22.70;88.70;;;;;;4998775;28;20966;-52
2021/08/06 17:56:06;;;;;;;1.20;1.00;;;22.60;88.80;;;;;;4993633;28;20557;-52
2021/08/06 17:58:32;;;;;;;3.20;2.00;;;22.60;89.30;;;;;;4992749;28;20199;-52
2021/08/06 18:00:59;;;;;;;2.30;2.07;;;22.50;89.40;;;;;;4989695;28;20285;-53
2021/08/06 18:03:25;;;;;;;2.05;1.90;;;22.50;88.20;;;;;;4989775;28;20442;-52
2021/08/06 18:05:50;;;;;;;1.70;1.60;;;22.50;88.90;;;;;;4989896;28;20218;-53
2021/08/06 18:08:16;;;;;;;4.73;1.53;;;22.50;90.10;;;;;;4991575;28;20560;-51
2021/08/06 18:10:42;;;;;;;1.17;1.07;;;22.30;90.30;;;;;;4989607;28;20192;-53
2021/08/06 18:13:09;;;;;;;1.50;1.40;;;22.30;89.20;;;;;;5002142;28;20188;-53
2021/08/06 18:15:35;;;;;;;2.20;1.43;;;22.30;89.40;;;;;;4990061;28;20338;-52
2021/08/06 18:18:01;;;;;;;2.17;1.30;;;22.30;89.80;;;;;;4989558;28;20518;-51
2021/08/06 18:20:28;;;;;;;1.98;1.45;;;22.00;90.50;;;;;;4992795;28;20281;-53
2021/08/06 18:22:55;;;;;;;2.40;2.00;;;21.80;90.90;;;;;;4991940;28;20668;-52
2021/08/06 18:25:21;;;;;;;3.08;2.10;;;21.60;91.30;;;;;;4991589;28;20293;-52
2021/08/06 18:27:47;;;;;;;3.77;1.87;;;21.70;92.00;;;;;;4989608;28;20238;-52
2021/08/06 18:30:13;;;;;;;2.40;2.15;;;21.50;93.60;;;;;;4989835;28;20518;-51
2021/08/06 18:32:39;;;;;;;2.55;2.35;;;21.30;93.80;;;;;;4992140;28;20184;-52
2021/08/06 18:35:07;;;;;;;2.78;2.40;;;21.30;93.30;;;;;;4992182;28;20192;-52
2021/08/06 18:37:33;;;;;;;3.22;2.20;;;21.20;93.70;;;;;;5008406;28;20198;-52
2021/08/06 18:40:00;;;;;;;2.47;2.28;;;21.20;93.80;;;;;;4993462;28;20210;-52